Time;durP1;ratioP1;P1;durP2;ratioP2;P2;SDS_P1;SDS_P2;PMS_P1;PMS_P2;Temp;Humidity;BMP_temperature;BMP_pressure;BME280_temperature;BME280_humidity;BME280_pressure;Samples;Min_cycle;Max_cycle;Signal;HPM_P1;HPM_P2
2023/03/27 00:02:27;;;;;;;6.68;1.80;;;;;;;6.51;42.42;100892.06;5020034;28;20077;-80
2023/03/27 00:04:55;;;;;;;5.93;1.88;;;;;;;6.50;42.10;100891.22;5028699;28;20052;-80
2023/03/27 00:07:23;;;;;;;9.50;1.90;;;;;;;6.49;42.23;100907.63;5025485;28;20648;-79
2023/03/27 00:09:52;;;;;;;5.95;2.10;;;;;;;6.48;42.39;100906.75;5028404;28;20049;-80
2023/03/27 00:12:20;;;;;;;5.85;1.70;;;;;;;6.47;42.49;100904.13;5026073;28;20133;-80
2023/03/27 00:14:49;;;;;;;6.18;1.90;;;;;;;6.47;42.35;100909.56;5036840;28;20034;-80
2023/03/27 00:17:18;;;;;;;6.07;1.67;;;;;;;6.44;42.27;100916.97;5023039;28;20095;-80
2023/03/27 00:19:45;;;;;;;4.53;1.70;;;;;;;6.43;42.45;100915.25;5025342;28;20049;-80
2023/03/27 00:22:13;;;;;;;6.72;2.60;;;;;;;6.42;42.41;100918.06;5023529;28;20049;-80
2023/03/27 00:24:41;;;;;;;6.97;1.95;;;;;;;6.40;42.45;100920.00;5026765;28;20049;-81
2023/03/27 00:27:09;;;;;;;5.75;1.70;;;;;;;6.40;42.41;100922.72;5029363;28;20064;-81
2023/03/27 00:29:38;;;;;;;5.10;1.90;;;;;;;6.38;42.46;100919.22;5022826;28;20077;-81
2023/03/27 00:32:08;;;;;;;6.80;1.50;;;;;;;6.38;42.00;100930.09;5018747;28;20049;-81
2023/03/27 00:34:36;;;;;;;6.43;1.75;;;;;;;6.37;42.23;100939.22;5021621;28;20270;-81
2023/03/27 00:37:04;;;;;;;7.03;1.90;;;;;;;6.32;42.30;100935.97;5022995;28;20432;-80
2023/03/27 00:39:32;;;;;;;5.38;1.85;;;;;;;6.32;42.53;100945.00;5028590;28;20136;-81
2023/03/27 00:42:00;;;;;;;4.68;1.60;;;;;;;6.31;42.32;100948.69;5019722;28;20536;-81
2023/03/27 00:44:33;;;;;;;5.63;1.80;;;;;;;6.31;42.44;100953.25;5027861;28;20063;-80
2023/03/27 00:47:04;;;;;;;6.13;2.00;;;;;;;6.29;42.69;100950.63;5018901;28;20045;-80
2023/03/27 00:49:36;;;;;;;5.35;2.00;;;;;;;6.31;42.22;100955.97;5031626;28;20132;-82
2023/03/27 00:52:05;;;;;;;6.05;1.70;;;;;;;6.25;42.54;100965.41;5015285;28;20052;-82
2023/03/27 00:54:38;;;;;;;5.65;1.70;;;;;;;6.27;42.56;100968.03;5026220;28;20572;-82
2023/03/27 00:57:11;;;;;;;6.07;1.80;;;;;;;6.25;42.43;100970.84;5027415;28;20139;-80
2023/03/27 00:59:42;;;;;;;5.80;1.63;;;;;;;6.25;42.53;100986.28;5036087;28;20568;-81
2023/03/27 01:02:12;;;;;;;5.13;1.75;;;;;;;6.23;42.38;100980.94;5041442;28;20034;-81
2023/03/27 01:04:43;;;;;;;5.13;1.70;;;;;;;6.24;42.29;100985.41;5031687;28;20045;-81
2023/03/27 01:07:11;;;;;;;8.70;1.80;;;;;;;6.22;42.61;100987.34;5022408;28;20054;-82
2023/03/27 01:09:39;;;;;;;4.68;1.50;;;;;;;6.19;42.51;100982.16;5027120;28;20441;-82
2023/03/27 01:12:19;;;;;;;3.63;1.60;;;;;;;6.22;42.17;100986.50;5017059;28;20038;-81
2023/03/27 01:15:00;;;;;;;4.22;1.48;;;;;;;6.19;42.42;100984.88;5027144;28;20068;-81
2023/03/27 01:17:43;;;;;;;5.75;1.60;;;;;;;6.18;42.08;100993.13;5032147;28;20103;-81
2023/03/27 01:20:46;;;;;;;4.45;1.40;;;;;;;6.14;41.99;100997.00;5029120;28;20113;-80
2023/03/27 01:23:49;;;;;;;6.28;1.77;;;;;;;6.12;42.46;101005.25;5015800;28;20046;-81
2023/03/27 01:26:56;;;;;;;4.30;1.42;;;;;;;6.09;42.06;101016.34;5024957;28;20563;-81
2023/03/27 01:29:56;;;;;;;3.88;1.60;;;;;;;6.09;42.40;101001.88;5027624;28;20124;-81
2023/03/27 01:33:03;;;;;;;4.93;1.48;;;;;;;6.05;42.16;101018.38;5028241;28;20121;-81
2023/03/27 01:35:46;;;;;;;3.53;1.30;;;;;;;6.04;42.53;101022.06;5031411;28;20124;-81
2023/03/27 01:38:47;;;;;;;4.50;1.90;;;;;;;6.03;42.35;101033.06;5023876;28;20052;-79
2023/03/27 01:41:24;;;;;;;5.40;1.70;;;;;;;6.02;42.58;101040.34;4992295;28;20053;-80
2023/03/27 01:43:59;;;;;;;5.15;1.65;;;;;;;6.02;42.65;101032.19;5030734;28;20040;-81
2023/03/27 01:46:35;;;;;;;7.05;1.60;;;;;;;6.01;42.60;101041.31;5024615;28;20037;-82
2023/03/27 01:49:07;;;;;;;4.82;2.10;;;;;;;5.99;42.69;101040.53;5035659;28;20539;-81
2023/03/27 01:51:38;;;;;;;5.10;1.80;;;;;;;5.99;42.40;101037.81;5046730;28;20045;-80
2023/03/27 01:54:14;;;;;;;4.53;1.60;;;;;;;5.96;42.18;101048.00;5038208;28;20072;-81
2023/03/27 01:56:52;;;;;;;4.32;1.30;;;;;;;5.97;42.50;101056.03;5028251;28;20053;-81
2023/03/27 01:59:25;;;;;;;2.95;1.35;;;;;;;5.95;42.30;101055.25;5034066;28;20044;-81
2023/03/27 02:01:59;;;;;;;5.07;1.50;;;;;;;5.92;42.37;101055.50;5041182;28;20095;-81
2023/03/27 02:04:34;;;;;;;5.20;1.25;;;;;;;5.93;42.28;101056.34;5038118;28;20040;-81
2023/03/27 02:07:10;;;;;;;5.82;1.58;;;;;;;5.93;42.38;101065.38;5033658;28;20117;-82
2023/03/27 02:09:45;;;;;;;4.47;1.40;;;;;;;5.92;42.43;101066.34;5020819;28;20095;-79
2023/03/27 02:12:19;;;;;;;4.30;1.73;;;;;;;5.93;42.21;101069.94;5030024;28;20041;-82
2023/03/27 02:14:54;;;;;;;3.10;1.33;;;;;;;5.91;42.17;101070.03;5028881;28;20038;-81
2023/03/27 02:17:25;;;;;;;5.32;1.83;;;;;;;5.89;42.47;101071.09;5023284;28;20062;-81
2023/03/27 02:19:59;;;;;;;4.05;1.63;;;;;;;5.87;42.34;101075.78;5028086;28;20045;-81
2023/03/27 02:22:28;;;;;;;4.00;1.38;;;;;;;5.84;42.47;101094.97;5031077;28;20046;-82
2023/03/27 02:25:26;;;;;;;3.60;1.30;;;;;;;5.83;41.87;101091.38;5031697;28;20069;-81
2023/03/27 02:28:08;;;;;;;3.42;1.23;;;;;;;5.84;41.48;101101.28;5031707;28;20049;-81
2023/03/27 02:30:42;;;;;;;3.83;1.50;;;;;;;5.81;41.92;101098.75;5023264;28;20844;-81
2023/03/27 02:33:18;;;;;;;4.85;1.70;;;;;;;5.82;41.91;101099.63;5031002;28;20050;-82
2023/03/27 02:35:56;;;;;;;3.67;1.30;;;;;;;5.79;41.72;101114.25;5032996;28;20053;-81
2023/03/27 02:38:30;;;;;;;6.15;1.70;;;;;;;5.77;41.90;101110.81;5029621;28;20180;-82
2023/03/27 02:41:08;;;;;;;5.05;1.55;;;;;;;5.77;42.24;101120.78;5032538;28;20560;-80
2023/03/27 02:43:53;;;;;;;4.03;1.20;;;;;;;5.74;41.91;101129.13;5027798;28;20046;-80
2023/03/27 02:46:41;;;;;;;5.90;1.73;;;;;;;5.74;42.05;101126.41;5018974;28;20464;-81
2023/03/27 02:49:14;;;;;;;4.97;1.25;;;;;;;5.73;42.06;101130.09;5022175;28;20087;-82
2023/03/27 02:51:49;;;;;;;4.22;1.50;;;;;;;5.70;42.38;101130.28;5017166;28;20683;-81
2023/03/27 02:54:22;;;;;;;4.82;1.35;;;;;;;5.70;42.20;101133.00;5026618;28;20728;-79
2023/03/27 02:56:54;;;;;;;;;;;;;;;5.46;42.56;101130.00;5031703;28;20042;-80
2023/03/27 02:59:34;;;;;;;3.40;1.20;;;;;;;5.63;42.10;101141.53;5022588;28;19964;-81
2023/03/27 03:02:05;;;;;;;4.20;1.20;;;;;;;5.63;42.41;101136.09;5021916;28;20133;-80
2023/03/27 03:04:45;;;;;;;3.50;1.35;;;;;;;5.64;42.23;101134.25;5030252;28;20037;-81
2023/03/27 03:07:18;;;;;;;4.95;1.27;;;;;;;5.60;42.80;101144.44;5029418;28;20725;-81
2023/03/27 03:09:47;;;;;;;3.92;1.15;;;;;;;5.61;42.38;101150.75;5025245;28;20525;-81
2023/03/27 03:12:14;;;;;;;4.93;1.40;;;;;;;5.60;42.65;101160.75;5034436;28;20143;-80
2023/03/27 03:14:46;;;;;;;4.55;1.40;;;;;;;5.60;42.70;101168.00;5027338;28;20075;-81
2023/03/27 03:17:16;;;;;;;4.57;1.30;;;;;;;5.58;42.48;101176.25;5022192;28;20050;-80
2023/03/27 03:19:45;;;;;;;3.10;1.52;;;;;;;5.57;42.66;101179.91;5029794;28;20460;-81
2023/03/27 03:22:13;;;;;;;5.03;1.40;;;;;;;5.56;42.62;101183.59;5030090;28;20049;-79
2023/03/27 03:24:42;;;;;;;5.95;1.65;;;;;;;5.55;42.79;101179.13;5025594;28;20041;-82
2023/03/27 03:27:14;;;;;;;3.15;1.10;;;;;;;5.53;42.80;101188.38;5025635;28;20050;-81
2023/03/27 03:29:55;;;;;;;3.95;1.30;;;;;;;5.55;42.49;101187.28;5020613;28;20053;-80
2023/03/27 03:32:29;;;;;;;3.58;1.15;;;;;;;5.54;42.82;101190.13;5025121;28;20079;-80
2023/03/27 03:35:00;;;;;;;6.15;1.23;;;;;;;5.53;42.46;101186.53;5022648;28;20076;-81
2023/03/27 03:37:37;;;;;;;5.13;1.30;;;;;;;5.52;42.78;101192.91;5023132;28;20459;-80
2023/03/27 03:40:10;;;;;;;4.43;1.30;;;;;;;5.52;42.95;101194.75;5040310;28;20572;-80
2023/03/27 03:42:45;;;;;;;4.20;1.45;;;;;;;5.50;42.54;101185.81;5030064;28;20093;-82
2023/03/27 03:45:14;;;;;;;4.15;1.40;;;;;;;5.51;42.90;101199.31;5033037;28;20038;-81
2023/03/27 03:47:43;;;;;;;3.72;1.45;;;;;;;5.49;42.54;101212.09;5018234;28;20065;-81
2023/03/27 03:50:11;;;;;;;5.60;1.35;;;;;;;5.48;42.80;101207.63;5029697;28;20042;-82
2023/03/27 03:52:40;;;;;;;4.47;1.63;;;;;;;5.46;42.72;101217.69;5029193;28;20124;-81
2023/03/27 03:55:10;;;;;;;5.57;1.48;;;;;;;5.47;42.94;101219.44;5026971;28;20099;-81
2023/03/27 03:57:39;;;;;;;6.28;1.40;;;;;;;5.45;42.93;101231.38;5020958;28;20059;-81
2023/03/27 04:00:12;;;;;;;4.20;1.38;;;;;;;5.42;42.96;101228.84;5028091;28;20037;-80
2023/03/27 04:02:53;;;;;;;5.57;1.20;;;;;;;5.42;42.91;101232.44;5020968;28;20045;-82
2023/03/27 04:05:22;;;;;;;3.60;1.38;;;;;;;5.37;42.96;101226.44;5018420;28;20046;-80
2023/03/27 04:07:52;;;;;;;3.22;1.40;;;;;;;5.39;42.92;101242.59;5024254;28;20044;-80
2023/03/27 04:10:40;;;;;;;4.32;1.35;;;;;;;5.38;42.91;101251.72;5019449;28;20060;-82
2023/03/27 04:13:34;;;;;;;3.42;1.20;;;;;;;5.35;43.07;101243.75;5008624;28;20057;-81
2023/03/27 04:16:12;;;;;;;3.50;1.23;;;;;;;5.34;42.98;101248.31;5016227;28;20069;-79
2023/03/27 04:18:48;;;;;;;2.80;1.13;;;;;;;5.32;42.75;101250.22;5032260;28;20041;-79
2023/03/27 04:21:19;;;;;;;3.38;1.20;;;;;;;5.30;43.09;101250.31;5024127;28;20042;-80
2023/03/27 04:23:48;;;;;;;3.38;1.15;;;;;;;5.30;42.98;101261.19;5018357;28;20715;-81
2023/03/27 04:26:25;;;;;;;3.20;1.20;;;;;;;5.29;42.71;101264.84;5020761;28;20081;-80
2023/03/27 04:29:29;;;;;;;4.18;1.20;;;;;;;5.26;43.12;101272.31;4999549;28;20109;-81
2023/03/27 04:32:00;;;;;;;3.25;1.30;;;;;;;5.26;42.89;101275.91;5018045;28;20042;-81
2023/03/27 04:34:42;;;;;;;4.60;1.38;;;;;;;5.24;43.15;101277.81;5026059;28;20054;-82
2023/03/27 04:37:25;;;;;;;5.13;1.52;;;;;;;5.23;42.92;101288.75;5022858;28;20129;-80
2023/03/27 04:40:24;;;;;;;3.33;1.17;;;;;;;5.20;43.26;101291.69;5027323;28;20049;-81
2023/03/27 04:42:54;;;;;;;4.47;1.40;;;;;;;5.20;42.96;101287.13;5031099;28;20064;-81
2023/03/27 04:45:24;;;;;;;5.55;1.65;;;;;;;5.19;43.12;101292.63;5030479;28;20140;-82
2023/03/27 04:47:53;;;;;;;4.63;1.35;;;;;;;5.19;43.25;101298.94;5028867;28;20033;-82
2023/03/27 04:50:23;;;;;;;4.70;1.55;;;;;;;5.18;43.04;101296.31;5038208;28;20057;-80
2023/03/27 04:52:57;;;;;;;4.18;1.50;;;;;;;5.17;43.36;101306.28;5034567;28;20037;-81
2023/03/27 04:55:36;;;;;;;4.07;1.38;;;;;;;5.16;43.54;101307.22;5031617;28;20772;-80
2023/03/27 04:58:05;;;;;;;4.97;1.60;;;;;;;5.17;43.31;101305.38;5029396;28;20049;-81
2023/03/27 05:00:33;;;;;;;4.45;1.50;;;;;;;5.16;43.40;101315.34;5034435;28;20721;-81
2023/03/27 05:03:34;;;;;;;6.15;1.40;;;;;;;5.15;43.53;101315.44;5000392;28;20124;-79
2023/03/27 05:06:10;;;;;;;4.97;1.50;;;;;;;5.16;43.63;101318.06;5024998;28;20048;-82
2023/03/27 05:08:40;;;;;;;4.18;1.50;;;;;;;5.15;43.55;101320.88;5026458;28;20072;-80
2023/03/27 05:11:16;;;;;;;4.68;2.10;;;;;;;5.15;43.63;101320.88;5029667;28;20071;-80
2023/03/27 05:13:45;;;;;;;4.30;1.58;;;;;;;5.15;43.36;101329.00;5025974;28;20046;-81
2023/03/27 05:16:17;;;;;;;4.00;1.42;;;;;;;5.14;43.18;101330.84;5031847;28;20061;-80
2023/03/27 05:18:48;;;;;;;4.90;1.60;;;;;;;5.12;43.44;101330.06;5023770;28;20054;-79
2023/03/27 05:21:18;;;;;;;5.05;1.83;;;;;;;5.14;43.63;101333.56;5043931;28;20179;-80
2023/03/27 05:23:47;;;;;;;4.28;1.40;;;;;;;5.13;43.44;101341.81;5034929;28;20045;-81
2023/03/27 05:26:21;;;;;;;3.60;1.40;;;;;;;5.12;43.66;101345.47;5029218;28;20227;-80
2023/03/27 05:28:54;;;;;;;5.35;1.73;;;;;;;5.11;43.63;101346.44;5027287;28;20092;-81
2023/03/27 05:31:22;;;;;;;3.50;1.50;;;;;;;5.12;43.52;101350.91;5039691;28;20049;-79
2023/03/27 05:34:00;;;;;;;3.88;1.50;;;;;;;5.11;43.75;101360.00;5037358;28;20061;-79
2023/03/27 05:36:34;;;;;;;3.90;1.60;;;;;;;5.12;43.88;101362.63;5037076;28;20052;-78
2023/03/27 05:39:03;;;;;;;5.78;1.52;;;;;;;5.11;43.79;101369.03;5041963;28;20071;-79
2023/03/27 05:41:37;;;;;;;5.53;1.63;;;;;;;5.11;43.85;101371.72;5032253;28;20623;-79
2023/03/27 05:44:06;;;;;;;3.97;1.50;;;;;;;5.12;43.94;101372.59;5027324;28;20111;-79
2023/03/27 05:46:38;;;;;;;5.22;1.45;;;;;;;5.12;43.58;101370.78;5027498;28;20144;-80
2023/03/27 05:49:14;;;;;;;2.80;1.23;;;;;;;5.13;43.66;101385.22;5028809;28;20045;-78
2023/03/27 05:51:45;;;;;;;4.30;1.48;;;;;;;5.14;43.65;101389.66;5029717;28;20056;-78
2023/03/27 05:54:20;;;;;;;3.22;1.42;;;;;;;5.12;43.71;101387.06;5029162;28;20056;-78
2023/03/27 05:56:55;;;;;;;3.58;1.50;;;;;;;5.12;43.78;101388.88;5026855;28;20122;-81
2023/03/27 05:59:24;;;;;;;3.35;1.70;;;;;;;5.15;43.71;101391.41;5030175;28;20042;-80
2023/03/27 06:01:58;;;;;;;4.78;1.48;;;;;;;5.15;43.97;101396.84;5028797;28;20128;-81
2023/03/27 06:04:37;;;;;;;4.43;1.58;;;;;;;5.14;44.08;101398.66;5031994;28;20044;-81
2023/03/27 06:07:11;;;;;;;3.67;1.42;;;;;;;5.15;43.99;101400.44;5028447;28;20057;-80
2023/03/27 06:09:40;;;;;;;2.95;1.55;;;;;;;5.18;44.07;101407.56;5028934;28;20085;-77
2023/03/27 06:12:26;;;;;;;4.07;1.45;;;;;;;5.17;44.14;101408.50;5027726;28;20044;-78
2023/03/27 06:15:04;;;;;;;3.70;1.58;;;;;;;5.17;44.51;101409.41;5024741;28;20127;-77
2023/03/27 06:17:39;;;;;;;5.20;1.60;;;;;;;5.22;44.51;101415.44;5027004;28;20369;-78
2023/03/27 06:20:10;;;;;;;4.95;1.55;;;;;;;5.22;44.23;101420.84;5028859;28;20037;-78
2023/03/27 06:22:45;;;;;;;4.45;1.60;;;;;;;5.25;44.02;101422.53;5020370;28;20107;-78
2023/03/27 06:25:16;;;;;;;3.00;1.48;;;;;;;5.25;43.94;101425.25;5021447;28;20042;-79
2023/03/27 06:27:45;;;;;;;4.30;1.70;;;;;;;5.26;43.94;101429.72;5022045;28;20055;-80
2023/03/27 06:30:18;;;;;;;4.85;2.10;;;;;;;5.27;43.80;101436.91;5032032;28;20036;-79
2023/03/27 06:33:05;;;;;;;5.82;1.80;;;;;;;5.25;43.95;101442.41;5030032;28;20050;-79
2023/03/27 06:35:34;;;;;;;3.60;1.58;;;;;;;5.26;43.93;101441.44;5026338;28;20076;-79
2023/03/27 06:38:15;;;;;;;3.70;1.58;;;;;;;5.25;44.00;101439.69;5022320;28;20046;-79
2023/03/27 06:40:43;;;;;;;3.58;1.50;;;;;;;5.27;43.90;101448.63;5025210;28;20058;-78
2023/03/27 06:43:12;;;;;;;2.85;1.42;;;;;;;5.29;44.08;101445.84;5020042;28;20052;-79
2023/03/27 06:45:52;;;;;;;3.28;1.50;;;;;;;5.30;44.11;101447.56;5018639;28;20049;-79
2023/03/27 06:48:39;;;;;;;3.15;1.42;;;;;;;5.33;44.22;101441.97;5020924;28;20249;-78
2023/03/27 06:51:08;;;;;;;4.90;1.35;;;;;;;5.39;44.96;101452.47;5027910;28;20560;-78
2023/03/27 06:53:38;;;;;;;2.50;1.30;;;;;;;5.47;44.88;101454.75;5026553;28;20037;-77
2023/03/27 06:56:08;;;;;;;4.60;1.48;;;;;;;5.54;45.39;101459.75;5027461;28;20061;-78
2023/03/27 06:58:54;;;;;;;3.28;1.25;;;;;;;5.60;45.66;101448.56;5031535;28;20053;-80
2023/03/27 07:01:27;;;;;;;2.47;1.25;;;;;;;5.70;45.70;101451.63;5030947;28;20438;-79
2023/03/27 07:04:32;;;;;;;5.47;1.20;;;;;;;5.86;45.40;101460.63;5027039;28;20050;-79
2023/03/27 07:07:14;;;;;;;2.97;1.30;;;;;;;5.97;46.64;101460.84;5019100;28;20052;-78
2023/03/27 07:09:48;;;;;;;3.22;1.08;;;;;;;6.19;46.50;101473.19;5019875;28;20072;-79
2023/03/27 07:12:22;;;;;;;3.33;1.15;;;;;;;6.34;47.38;101461.38;5023117;28;20060;-78
2023/03/27 07:14:50;;;;;;;3.53;1.20;;;;;;;6.64;47.49;101474.94;5026806;28;20044;-80
2023/03/27 07:17:18;;;;;;;2.67;1.15;;;;;;;6.92;47.66;101475.03;5029902;28;20052;-80
2023/03/27 07:19:52;;;;;;;3.50;1.17;;;;;;;7.22;47.18;101482.22;5023799;28;20596;-80
2023/03/27 07:22:24;;;;;;;3.65;1.42;;;;;;;7.48;47.25;101487.75;5026584;28;20065;-80
2023/03/27 07:24:53;;;;;;;3.28;1.55;;;;;;;7.81;46.36;101498.28;5027431;28;20073;-79
2023/03/27 07:27:23;;;;;;;2.70;1.20;;;;;;;8.09;45.96;101496.47;5039155;28;20045;-79
2023/03/27 07:30:00;;;;;;;2.42;1.23;;;;;;;8.37;46.03;101501.81;5027471;28;20073;-79
2023/03/27 07:32:31;;;;;;;3.53;1.10;;;;;;;8.63;45.58;101502.75;5014706;28;20052;-78
2023/03/27 07:35:05;;;;;;;2.35;0.95;;;;;;;8.91;45.42;101510.78;5043974;28;20041;-78
2023/03/27 07:37:53;;;;;;;2.55;1.10;;;;;;;9.17;44.64;101499.84;5018545;28;20512;-80
2023/03/27 07:41:02;;;;;;;2.17;1.00;;;;;;;9.42;43.95;101508.94;5023654;28;20042;-79
2023/03/27 07:43:50;;;;;;;3.38;1.40;;;;;;;9.64;43.75;101510.13;5025753;28;20057;-79
2023/03/27 07:46:22;;;;;;;2.45;1.08;;;;;;;9.81;43.93;101510.63;5019102;28;20045;-79
2023/03/27 07:48:52;;;;;;;3.20;1.40;;;;;;;9.99;43.20;101526.66;5029306;28;20061;-79
2023/03/27 07:51:23;;;;;;;2.47;1.08;;;;;;;10.15;43.03;101525.34;5025325;28;20088;-79
2023/03/27 07:53:57;;;;;;;3.15;1.15;;;;;;;10.30;42.74;101522.47;5040765;28;20170;-79
2023/03/27 07:56:32;;;;;;;3.80;1.52;;;;;;;10.44;42.02;101516.81;5022602;28;20053;-80
2023/03/27 07:59:31;;;;;;;2.92;1.13;;;;;;;10.53;41.89;101524.31;5015636;28;20113;-80
2023/03/27 08:02:06;;;;;;;3.75;1.08;;;;;;;10.61;41.27;101527.38;5029332;28;20056;-79
2023/03/27 08:04:38;;;;;;;1.60;0.77;;;;;;;10.68;40.64;101531.38;5018705;28;20091;-79
2023/03/27 08:07:08;;;;;;;2.47;1.20;;;;;;;10.70;40.08;101543.09;5022688;28;20049;-77
2023/03/27 08:09:37;;;;;;;3.10;1.00;;;;;;;10.69;39.63;101545.94;5021040;28;20053;-78
2023/03/27 08:12:07;;;;;;;3.80;1.17;;;;;;;10.66;38.95;101540.69;5018615;28;20520;-79
2023/03/27 08:14:40;;;;;;;2.65;1.00;;;;;;;10.57;38.92;101542.25;5020580;28;20519;-78
2023/03/27 08:17:31;;;;;;;3.90;1.23;;;;;;;10.46;38.54;101547.66;5026129;28;20060;-79
2023/03/27 08:20:00;;;;;;;2.25;0.85;;;;;;;10.35;38.36;101548.47;5027788;28;20065;-78
2023/03/27 08:22:32;;;;;;;2.78;0.98;;;;;;;10.20;37.87;101545.03;5023095;28;20045;-78
2023/03/27 08:25:21;;;;;;;2.47;0.80;;;;;;;10.07;37.99;101546.94;5024387;28;20602;-78
2023/03/27 08:27:51;;;;;;;2.67;0.90;;;;;;;9.98;37.77;101541.31;5021574;28;20041;-78
2023/03/27 08:30:20;;;;;;;4.53;1.10;;;;;;;9.87;38.39;101546.69;5022675;28;20059;-80
2023/03/27 08:32:51;;;;;;;;;;;;;;;9.54;38.36;101556.38;5040902;28;20472;-80
2023/03/27 08:35:20;;;;;;;3.03;0.70;;;;;;;9.69;38.41;101555.25;5026895;28;19921;-80
2023/03/27 08:37:55;;;;;;;3.17;1.10;;;;;;;9.67;37.73;101561.78;5019497;28;20065;-82
2023/03/27 08:40:48;;;;;;;1.85;0.88;;;;;;;9.57;37.11;101558.88;5025718;28;20121;-80
2023/03/27 08:43:31;;;;;;;3.15;0.98;;;;;;;9.51;37.61;101567.50;5046003;28;20041;-82
2023/03/27 08:46:03;;;;;;;2.08;0.90;;;;;;;9.43;37.54;101575.38;5019995;28;20053;-80
2023/03/27 08:48:39;;;;;;;1.15;0.85;;;;;;;9.35;38.03;101573.16;5023923;28;20049;-79
2023/03/27 08:51:15;;;;;;;2.55;0.93;;;;;;;9.26;37.89;101573.81;5025596;28;20049;-81
2023/03/27 08:53:48;;;;;;;3.13;1.30;;;;;;;9.19;37.89;101583.41;5029134;28;20044;-81
2023/03/27 08:56:24;;;;;;;7.32;1.48;;;;;;;9.11;37.88;101583.09;5028390;28;20038;-80
2023/03/27 08:58:55;;;;;;;1.60;0.85;;;;;;;9.04;37.82;101593.56;5023040;28;20041;-81
2023/03/27 09:01:29;;;;;;;3.22;1.20;;;;;;;9.01;37.27;101601.09;5020673;28;20048;-81
2023/03/27 09:04:07;;;;;;;3.97;1.10;;;;;;;8.94;37.16;101603.38;5021641;28;20050;-82
2023/03/27 09:06:48;;;;;;;2.03;1.10;;;;;;;8.90;36.94;101603.69;5025710;28;20509;-81
2023/03/27 09:09:29;;;;;;;2.72;1.08;;;;;;;8.84;36.65;101607.69;5026145;28;20060;-79
2023/03/27 09:12:08;;;;;;;5.05;1.50;;;;;;;8.80;36.86;101608.03;5021100;28;20050;-81
2023/03/27 09:14:44;;;;;;;2.50;1.20;;;;;;;8.76;37.55;101612.81;5017952;28;20037;-79
2023/03/27 09:17:17;;;;;;;4.15;1.10;;;;;;;8.76;37.64;101614.66;5021496;28;20519;-78
2023/03/27 09:19:52;;;;;;;3.65;0.90;;;;;;;8.75;37.80;101611.09;5022115;28;20053;-79
2023/03/27 09:22:29;;;;;;;3.58;1.20;;;;;;;8.79;37.83;101609.00;5028784;28;20098;-79
2023/03/27 09:25:15;;;;;;;4.85;1.50;;;;;;;8.80;38.09;101598.00;5023602;28;20046;-78
2023/03/27 09:28:12;;;;;;;2.90;1.05;;;;;;;8.86;38.13;101608.47;5027428;28;20443;-79
2023/03/27 09:30:47;;;;;;;3.20;1.10;;;;;;;8.92;38.05;101604.44;5029319;28;20097;-77
2023/03/27 09:33:27;;;;;;;1.75;0.98;;;;;;;8.98;38.46;101607.66;5020494;28;20045;-78
2023/03/27 09:35:57;;;;;;;2.85;1.08;;;;;;;9.07;38.35;101611.59;5022485;28;20053;-79
2023/03/27 09:38:32;;;;;;;3.75;1.20;;;;;;;9.13;37.50;101602.97;5025864;28;20045;-78
2023/03/27 09:41:05;;;;;;;3.50;1.17;;;;;;;9.19;38.17;101610.72;5019799;28;20157;-81
2023/03/27 09:43:41;;;;;;;3.60;1.02;;;;;;;9.28;36.51;101615.56;5023197;28;20044;-79
2023/03/27 09:46:16;;;;;;;4.57;1.27;;;;;;;9.35;37.43;101616.00;5040271;28;20043;-77
2023/03/27 09:48:56;;;;;;;3.30;1.20;;;;;;;9.42;36.76;101614.59;5045684;28;20526;-78
2023/03/27 09:51:39;;;;;;;2.78;1.05;;;;;;;9.46;36.32;101611.56;5022775;28;20052;-77
2023/03/27 09:54:16;;;;;;;4.95;1.30;;;;;;;9.53;37.39;101613.84;5015772;28;20081;-77
2023/03/27 09:56:47;;;;;;;2.60;1.25;;;;;;;9.55;37.14;101625.56;5014935;28;20645;-78
2023/03/27 09:59:28;;;;;;;2.80;1.15;;;;;;;9.57;35.94;101635.41;5016251;28;20547;-79
2023/03/27 10:02:17;;;;;;;3.97;1.30;;;;;;;9.56;35.79;101638.25;5021673;28;20053;-80
2023/03/27 10:04:58;;;;;;;2.00;1.02;;;;;;;9.53;35.52;101638.44;5022181;28;20056;-79
2023/03/27 10:07:31;;;;;;;3.25;1.23;;;;;;;9.48;36.49;101630.59;5019945;28;20069;-78
2023/03/27 10:10:20;;;;;;;3.38;1.02;;;;;;;9.45;36.54;101633.53;5022386;28;20192;-79
2023/03/27 10:13:12;;;;;;;3.10;1.17;;;;;;;9.43;36.41;101639.09;5026307;28;20246;-79
2023/03/27 10:15:48;;;;;;;2.05;0.98;;;;;;;9.42;36.97;101629.13;5028368;28;20579;-78
2023/03/27 10:18:30;;;;;;;4.45;1.25;;;;;;;9.43;36.63;101636.34;5023140;28;20066;-79
2023/03/27 10:21:12;;;;;;;5.13;1.33;;;;;;;9.45;37.08;101634.41;5028611;28;20049;-81
2023/03/27 10:23:42;;;;;;;2.90;1.20;;;;;;;9.51;36.80;101632.19;5031038;28;20048;-80
2023/03/27 10:26:21;;;;;;;4.05;1.50;;;;;;;9.53;36.97;101627.50;5056212;23;20415;-80
2023/03/27 10:28:51;;;;;;;4.72;1.10;;;;;;;9.57;36.83;101629.94;5021806;28;20042;-80
2023/03/27 10:31:38;;;;;;;3.80;1.15;;;;;;;9.59;36.54;101638.88;5022506;28;20509;-80
2023/03/27 10:34:35;;;;;;;4.28;1.17;;;;;;;9.57;34.89;101640.00;5043007;28;20052;-80
2023/03/27 10:37:28;;;;;;;3.50;1.25;;;;;;;9.57;36.04;101640.00;5027821;28;20540;-80
2023/03/27 10:40:37;;;;;;;2.83;1.20;;;;;;;9.53;35.91;101639.31;5003114;28;20047;-80
2023/03/27 10:43:28;;;;;;;2.40;1.10;;;;;;;9.53;35.16;101646.63;4990398;28;20038;-81
2023/03/27 10:46:03;;;;;;;3.00;1.10;;;;;;;9.50;35.41;101646.84;5000621;28;20053;-80
2023/03/27 10:48:42;;;;;;;4.05;1.20;;;;;;;9.47;34.64;101642.50;5000483;28;20042;-81
2023/03/27 10:51:32;;;;;;;4.10;1.10;;;;;;;9.43;34.44;101649.16;5007944;28;20054;-80
2023/03/27 10:54:32;;;;;;;5.28;1.50;;;;;;;9.38;35.02;101654.03;5008649;28;20112;-80
2023/03/27 10:57:04;;;;;;;3.35;1.27;;;;;;;9.33;35.53;101657.06;5006222;28;20061;-80
2023/03/27 10:59:40;;;;;;;2.33;0.90;;;;;;;9.29;34.86;101658.28;5024022;28;20046;-80
2023/03/27 11:02:27;;;;;;;3.97;1.38;;;;;;;9.25;35.10;101656.72;5025664;28;20124;-80
2023/03/27 11:05:03;;;;;;;4.45;1.52;;;;;;;9.21;35.23;101674.31;5014746;28;20140;-80
2023/03/27 11:07:38;;;;;;;5.10;1.67;;;;;;;9.13;35.36;101664.91;5015060;28;20038;-81
2023/03/27 11:10:14;;;;;;;3.92;1.60;;;;;;;9.06;34.95;101670.81;5028980;28;20068;-81
2023/03/27 11:12:50;;;;;;;4.50;1.70;;;;;;;8.99;35.25;101666.75;5034329;28;20045;-81
2023/03/27 11:15:22;;;;;;;4.75;1.30;;;;;;;8.91;35.98;101669.13;5030581;28;20053;-80
2023/03/27 11:17:57;;;;;;;5.88;1.25;;;;;;;8.85;35.82;101671.38;5005941;28;20519;-80
2023/03/27 11:20:51;;;;;;;3.28;1.38;;;;;;;8.79;36.19;101682.69;5021664;28;20046;-80
2023/03/27 11:23:54;;;;;;;4.55;1.55;;;;;;;8.73;36.30;101696.78;5033913;28;20068;-80
2023/03/27 11:26:33;;;;;;;2.17;1.00;;;;;;;8.70;36.05;101720.53;5029920;28;20080;-80
2023/03/27 11:29:09;;;;;;;3.08;0.90;;;;;;;8.67;36.64;101726.19;5043079;28;20483;-80
2023/03/27 11:31:45;;;;;;;1.58;0.73;;;;;;;8.62;36.55;101739.28;5018346;28;20153;-81
2023/03/27 11:34:25;;;;;;;1.58;0.70;;;;;;;8.57;36.85;101756.94;5034868;28;20061;-81
2023/03/27 11:37:05;;;;;;;1.73;0.60;;;;;;;8.49;36.93;101772.94;5027014;28;20061;-81
2023/03/27 11:39:47;;;;;;;2.50;0.73;;;;;;;8.43;36.80;101759.66;5022550;28;20049;-80
2023/03/27 11:42:18;;;;;;;2.10;0.80;;;;;;;8.33;37.05;101753.94;5009806;28;20049;-80
2023/03/27 11:44:48;;;;;;;1.43;0.60;;;;;;;8.22;37.62;101743.72;5029324;28;20532;-80
2023/03/27 11:47:56;;;;;;;2.22;0.60;;;;;;;8.16;37.92;101751.41;5025036;28;20048;-80
2023/03/27 11:50:39;;;;;;;1.67;0.63;;;;;;;8.11;38.66;101746.19;5039303;28;20088;-80
2023/03/27 11:53:19;;;;;;;1.42;0.70;;;;;;;8.05;38.68;101745.72;5018821;28;20505;-80
2023/03/27 11:56:20;;;;;;;1.60;0.50;;;;;;;8.04;39.74;101741.22;5026415;28;20374;-80
2023/03/27 11:59:09;;;;;;;1.15;0.60;;;;;;;8.04;39.44;101741.22;5018005;28;20038;-80
2023/03/27 12:01:47;;;;;;;2.25;0.70;;;;;;;8.04;39.73;101738.50;5031282;28;20491;-80
2023/03/27 12:04:37;;;;;;;0.82;0.52;;;;;;;8.08;39.86;101740.09;5013460;28;20524;-81
2023/03/27 12:07:27;;;;;;;1.25;0.68;;;;;;;8.10;39.85;101729.94;5032922;28;20061;-80
2023/03/27 12:10:24;;;;;;;1.27;0.80;;;;;;;8.16;39.62;101738.66;5038650;28;20053;-80
2023/03/27 12:13:43;;;;;;;1.02;0.50;;;;;;;8.20;39.73;101729.28;5018645;28;20050;-80
2023/03/27 12:17:05;;;;;;;1.17;0.50;;;;;;;8.26;39.25;101723.44;5015152;28;20424;-80
2023/03/27 12:20:24;;;;;;;3.40;0.70;;;;;;;8.34;38.98;101725.69;5023790;28;20139;-79
2023/03/27 12:23:22;;;;;;;2.45;0.75;;;;;;;8.42;38.78;101725.19;5033989;28;20421;-80